sensor_id;sensor_type;location;lat;lon;timestamp;P1;durP1;ratioP1;P2;durP2;ratioP2
51800;SDS011;37855;53.204;6.568;2023-04-24T00:00:53;6.45;;;3.20;;
51800;SDS011;37855;53.204;6.568;2023-04-24T00:03:22;6.67;;;3.17;;
51800;SDS011;37855;53.204;6.568;2023-04-24T00:05:48;6.03;;;3.40;;
51800;SDS011;37855;53.204;6.568;2023-04-24T00:08:15;6.18;;;3.70;;
51800;SDS011;37855;53.204;6.568;2023-04-24T00:10:41;7.78;;;4.13;;
51800;SDS011;37855;53.204;6.568;2023-04-24T00:13:06;6.57;;;4.15;;
51800;SDS011;37855;53.204;6.568;2023-04-24T00:15:35;7.30;;;4.00;;
51800;SDS011;37855;53.204;6.568;2023-04-24T00:18:01;7.07;;;4.35;;
51800;SDS011;37855;53.204;6.568;2023-04-24T00:20:27;6.15;;;4.20;;
51800;SDS011;37855;53.204;6.568;2023-04-24T00:22:54;7.43;;;4.68;;
51800;SDS011;37855;53.204;6.568;2023-04-24T00:25:20;8.83;;;4.93;;
51800;SDS011;37855;53.204;6.568;2023-04-24T00:27:46;8.05;;;5.00;;
51800;SDS011;37855;53.204;6.568;2023-04-24T00:30:12;6.83;;;4.53;;
51800;SDS011;37855;53.204;6.568;2023-04-24T00:32:37;6.57;;;4.40;;
51800;SDS011;37855;53.204;6.568;2023-04-24T00:35:03;6.53;;;4.15;;
51800;SDS011;37855;53.204;6.568;2023-04-24T00:37:30;5.90;;;3.77;;
51800;SDS011;37855;53.204;6.568;2023-04-24T00:39:56;5.55;;;2.80;;
51800;SDS011;37855;53.204;6.568;2023-04-24T00:42:22;3.42;;;2.20;;
51800;SDS011;37855;53.204;6.568;2023-04-24T00:44:51;3.17;;;1.90;;
51800;SDS011;37855;53.204;6.568;2023-04-24T00:47:17;2.67;;;1.70;;
51800;SDS011;37855;53.204;6.568;2023-04-24T00:49:44;3.58;;;1.70;;
51800;SDS011;37855;53.204;6.568;2023-04-24T00:52:10;4.95;;;1.80;;
51800;SDS011;37855;53.204;6.568;2023-04-24T00:54:37;2.60;;;1.57;;
51800;SDS011;37855;53.204;6.568;2023-04-24T00:57:03;4.05;;;1.50;;
51800;SDS011;37855;53.204;6.568;2023-04-24T00:59:29;3.35;;;1.70;;
51800;SDS011;37855;53.204;6.568;2023-04-24T01:01:55;2.65;;;1.38;;
51800;SDS011;37855;53.204;6.568;2023-04-24T01:04:22;1.80;;;1.40;;
51800;SDS011;37855;53.204;6.568;2023-04-24T01:06:47;2.55;;;1.50;;
51800;SDS011;37855;53.204;6.568;2023-04-24T01:09:15;2.00;;;1.40;;
51800;SDS011;37855;53.204;6.568;2023-04-24T01:11:42;2.42;;;1.58;;
51800;SDS011;37855;53.204;6.568;2023-04-24T01:14:08;2.03;;;1.40;;
51800;SDS011;37855;53.204;6.568;2023-04-24T01:16:34;2.25;;;1.50;;
51800;SDS011;37855;53.204;6.568;2023-04-24T01:19:00;2.03;;;1.38;;
51800;SDS011;37855;53.204;6.568;2023-04-24T01:21:27;8.93;;;1.60;;
51800;SDS011;37855;53.204;6.568;2023-04-24T01:23:58;2.92;;;1.48;;
51800;SDS011;37855;53.204;6.568;2023-04-24T01:26:27;2.20;;;1.63;;
51800;SDS011;37855;53.204;6.568;2023-04-24T01:28:55;2.88;;;1.42;;
51800;SDS011;37855;53.204;6.568;2023-04-24T01:31:21;2.63;;;1.50;;
51800;SDS011;37855;53.204;6.568;2023-04-24T01:33:47;2.60;;;1.70;;
51800;SDS011;37855;53.204;6.568;2023-04-24T01:36:13;3.05;;;1.60;;
51800;SDS011;37855;53.204;6.568;2023-04-24T01:38:41;2.17;;;1.70;;
51800;SDS011;37855;53.204;6.568;2023-04-24T01:41:06;2.60;;;1.60;;
51800;SDS011;37855;53.204;6.568;2023-04-24T01:43:32;3.53;;;1.60;;
51800;SDS011;37855;53.204;6.568;2023-04-24T01:45:58;2.53;;;1.80;;
51800;SDS011;37855;53.204;6.568;2023-04-24T01:48:24;4.60;;;1.80;;
51800;SDS011;37855;53.204;6.568;2023-04-24T01:50:50;4.20;;;2.15;;
51800;SDS011;37855;53.204;6.568;2023-04-24T01:53:15;3.10;;;2.07;;
51800;SDS011;37855;53.204;6.568;2023-04-24T01:55:41;4.32;;;1.80;;
51800;SDS011;37855;53.204;6.568;2023-04-24T01:58:07;2.90;;;2.07;;
51800;SDS011;37855;53.204;6.568;2023-04-24T02:00:32;2.92;;;2.03;;
51800;SDS011;37855;53.204;6.568;2023-04-24T02:02:58;3.63;;;2.00;;
51800;SDS011;37855;53.204;6.568;2023-04-24T02:05:24;3.05;;;1.90;;
51800;SDS011;37855;53.204;6.568;2023-04-24T02:07:49;3.30;;;2.30;;
51800;SDS011;37855;53.204;6.568;2023-04-24T02:10:15;19.70;;;2.53;;
51800;SDS011;37855;53.204;6.568;2023-04-24T02:12:41;4.33;;;2.10;;
51800;SDS011;37855;53.204;6.568;2023-04-24T02:15:06;3.22;;;2.13;;
51800;SDS011;37855;53.204;6.568;2023-04-24T02:17:32;2.97;;;2.10;;
51800;SDS011;37855;53.204;6.568;2023-04-24T02:19:58;4.85;;;2.08;;
51800;SDS011;37855;53.204;6.568;2023-04-24T02:22:24;4.07;;;2.47;;
51800;SDS011;37855;53.204;6.568;2023-04-24T02:24:49;5.20;;;2.67;;
51800;SDS011;37855;53.204;6.568;2023-04-24T02:27:15;4.90;;;2.70;;
51800;SDS011;37855;53.204;6.568;2023-04-24T02:29:41;4.78;;;2.70;;
51800;SDS011;37855;53.204;6.568;2023-04-24T02:32:06;3.73;;;2.60;;
51800;SDS011;37855;53.204;6.568;2023-04-24T02:34:36;5.45;;;3.15;;
51800;SDS011;37855;53.204;6.568;2023-04-24T02:37:02;4.50;;;2.73;;
51800;SDS011;37855;53.204;6.568;2023-04-24T02:39:27;5.22;;;3.08;;
51800;SDS011;37855;53.204;6.568;2023-04-24T02:41:53;4.50;;;3.10;;
51800;SDS011;37855;53.204;6.568;2023-04-24T02:44:18;4.68;;;3.17;;
51800;SDS011;37855;53.204;6.568;2023-04-24T02:46:44;5.63;;;3.20;;
51800;SDS011;37855;53.204;6.568;2023-04-24T02:49:10;5.20;;;3.55;;
51800;SDS011;37855;53.204;6.568;2023-04-24T02:51:37;5.18;;;3.22;;
51800;SDS011;37855;53.204;6.568;2023-04-24T02:54:05;5.03;;;3.63;;
51800;SDS011;37855;53.204;6.568;2023-04-24T02:56:35;5.40;;;3.40;;
51800;SDS011;37855;53.204;6.568;2023-04-24T02:59:03;4.85;;;3.33;;
51800;SDS011;37855;53.204;6.568;2023-04-24T03:01:29;5.32;;;3.70;;
51800;SDS011;37855;53.204;6.568;2023-04-24T03:03:55;6.30;;;3.37;;
51800;SDS011;37855;53.204;6.568;2023-04-24T03:06:23;6.85;;;4.32;;
51800;SDS011;37855;53.204;6.568;2023-04-24T03:08:48;7.20;;;4.22;;
51800;SDS011;37855;53.204;6.568;2023-04-24T03:11:14;6.17;;;4.17;;
51800;SDS011;37855;53.204;6.568;2023-04-24T03:13:39;7.07;;;4.60;;
51800;SDS011;37855;53.204;6.568;2023-04-24T03:16:05;5.68;;;3.70;;
51800;SDS011;37855;53.204;6.568;2023-04-24T03:18:31;6.13;;;4.40;;
51800;SDS011;37855;53.204;6.568;2023-04-24T03:20:56;6.13;;;4.60;;
51800;SDS011;37855;53.204;6.568;2023-04-24T03:23:22;6.10;;;4.43;;
51800;SDS011;37855;53.204;6.568;2023-04-24T03:25:48;8.57;;;4.73;;
51800;SDS011;37855;53.204;6.568;2023-04-24T03:28:14;7.60;;;4.90;;
51800;SDS011;37855;53.204;6.568;2023-04-24T03:30:39;6.43;;;4.78;;
51800;SDS011;37855;53.204;6.568;2023-04-24T03:33:05;6.65;;;4.90;;
51800;SDS011;37855;53.204;6.568;2023-04-24T03:35:31;6.70;;;4.93;;
51800;SDS011;37855;53.204;6.568;2023-04-24T03:37:57;6.75;;;5.05;;
51800;SDS011;37855;53.204;6.568;2023-04-24T03:40:22;6.73;;;4.60;;
51800;SDS011;37855;53.204;6.568;2023-04-24T03:42:48;7.72;;;5.53;;
51800;SDS011;37855;53.204;6.568;2023-04-24T03:45:14;8.43;;;6.37;;
51800;SDS011;37855;53.204;6.568;2023-04-24T03:47:40;9.48;;;6.70;;
51800;SDS011;37855;53.204;6.568;2023-04-24T03:50:05;8.87;;;6.37;;
51800;SDS011;37855;53.204;6.568;2023-04-24T03:52:31;8.93;;;6.63;;
51800;SDS011;37855;53.204;6.568;2023-04-24T03:55:00;10.07;;;7.47;;
51800;SDS011;37855;53.204;6.568;2023-04-24T03:57:25;9.20;;;7.07;;
51800;SDS011;37855;53.204;6.568;2023-04-24T03:59:51;11.00;;;7.80;;
51800;SDS011;37855;53.204;6.568;2023-04-24T04:02:18;10.10;;;7.30;;
51800;SDS011;37855;53.204;6.568;2023-04-24T04:04:44;8.93;;;7.47;;
51800;SDS011;37855;53.204;6.568;2023-04-24T04:07:09;10.17;;;7.57;;
51800;SDS011;37855;53.204;6.568;2023-04-24T04:09:36;9.73;;;7.35;;
51800;SDS011;37855;53.204;6.568;2023-04-24T04:12:02;13.88;;;7.82;;
51800;SDS011;37855;53.204;6.568;2023-04-24T04:14:27;10.10;;;7.17;;
51800;SDS011;37855;53.204;6.568;2023-04-24T04:16:53;9.43;;;7.30;;
51800;SDS011;37855;53.204;6.568;2023-04-24T04:19:19;9.93;;;7.10;;
51800;SDS011;37855;53.204;6.568;2023-04-24T04:21:50;7.85;;;6.55;;
51800;SDS011;37855;53.204;6.568;2023-04-24T04:24:18;7.63;;;6.40;;
51800;SDS011;37855;53.204;6.568;2023-04-24T04:26:46;8.80;;;6.75;;
51800;SDS011;37855;53.204;6.568;2023-04-24T04:29:12;8.95;;;6.43;;
51800;SDS011;37855;53.204;6.568;2023-04-24T04:31:38;8.07;;;6.30;;
51800;SDS011;37855;53.204;6.568;2023-04-24T04:34:04;8.25;;;6.38;;
51800;SDS011;37855;53.204;6.568;2023-04-24T04:36:30;8.02;;;5.95;;
51800;SDS011;37855;53.204;6.568;2023-04-24T04:38:56;8.20;;;5.73;;
51800;SDS011;37855;53.204;6.568;2023-04-24T04:41:24;8.90;;;5.38;;
51800;SDS011;37855;53.204;6.568;2023-04-24T04:43:50;6.95;;;5.45;;
51800;SDS011;37855;53.204;6.568;2023-04-24T04:46:15;8.47;;;5.60;;
51800;SDS011;37855;53.204;6.568;2023-04-24T04:48:44;7.25;;;5.63;;
51800;SDS011;37855;53.204;6.568;2023-04-24T04:51:10;6.93;;;5.35;;
51800;SDS011;37855;53.204;6.568;2023-04-24T04:53:36;7.47;;;5.10;;
51800;SDS011;37855;53.204;6.568;2023-04-24T04:56:02;6.97;;;5.07;;
51800;SDS011;37855;53.204;6.568;2023-04-24T04:58:28;8.90;;;5.30;;
51800;SDS011;37855;53.204;6.568;2023-04-24T05:00:53;7.20;;;5.30;;
51800;SDS011;37855;53.204;6.568;2023-04-24T05:03:19;6.10;;;4.68;;
51800;SDS011;37855;53.204;6.568;2023-04-24T05:05:45;7.83;;;5.53;;
51800;SDS011;37855;53.204;6.568;2023-04-24T05:08:10;8.25;;;4.70;;
51800;SDS011;37855;53.204;6.568;2023-04-24T05:10:36;6.43;;;4.57;;
51800;SDS011;37855;53.204;6.568;2023-04-24T05:13:02;4.72;;;3.25;;
51800;SDS011;37855;53.204;6.568;2023-04-24T05:15:29;5.00;;;3.30;;
51800;SDS011;37855;53.204;6.568;2023-04-24T05:17:55;5.17;;;3.17;;
51800;SDS011;37855;53.204;6.568;2023-04-24T05:20:24;5.00;;;3.10;;
51800;SDS011;37855;53.204;6.568;2023-04-24T05:22:49;5.70;;;3.30;;
51800;SDS011;37855;53.204;6.568;2023-04-24T05:25:15;5.80;;;3.53;;
51800;SDS011;37855;53.204;6.568;2023-04-24T05:27:41;5.93;;;3.30;;
51800;SDS011;37855;53.204;6.568;2023-04-24T05:30:07;6.50;;;3.30;;
51800;SDS011;37855;53.204;6.568;2023-04-24T05:32:33;4.72;;;2.90;;
51800;SDS011;37855;53.204;6.568;2023-04-24T05:35:02;5.28;;;3.38;;
51800;SDS011;37855;53.204;6.568;2023-04-24T05:37:27;6.20;;;3.10;;
51800;SDS011;37855;53.204;6.568;2023-04-24T05:39:53;5.50;;;3.35;;
51800;SDS011;37855;53.204;6.568;2023-04-24T05:42:19;6.47;;;4.17;;
51800;SDS011;37855;53.204;6.568;2023-04-24T05:44:44;5.78;;;2.75;;
51800;SDS011;37855;53.204;6.568;2023-04-24T05:47:10;4.93;;;2.83;;
51800;SDS011;37855;53.204;6.568;2023-04-24T05:49:36;6.63;;;3.08;;
51800;SDS011;37855;53.204;6.568;2023-04-24T05:52:01;5.40;;;3.00;;
51800;SDS011;37855;53.204;6.568;2023-04-24T05:54:29;5.07;;;2.78;;
51800;SDS011;37855;53.204;6.568;2023-04-24T05:56:55;4.90;;;2.75;;
51800;SDS011;37855;53.204;6.568;2023-04-24T05:59:20;5.87;;;3.27;;
51800;SDS011;37855;53.204;6.568;2023-04-24T06:01:46;5.50;;;2.70;;
51800;SDS011;37855;53.204;6.568;2023-04-24T06:04:12;5.53;;;3.10;;
51800;SDS011;37855;53.204;6.568;2023-04-24T06:06:40;5.88;;;3.33;;
51800;SDS011;37855;53.204;6.568;2023-04-24T06:09:06;5.90;;;3.40;;
51800;SDS011;37855;53.204;6.568;2023-04-24T06:11:32;7.07;;;3.17;;
51800;SDS011;37855;53.204;6.568;2023-04-24T06:13:58;6.93;;;3.53;;
51800;SDS011;37855;53.204;6.568;2023-04-24T06:16:23;5.88;;;3.47;;
51800;SDS011;37855;53.204;6.568;2023-04-24T06:18:49;5.90;;;3.23;;
51800;SDS011;37855;53.204;6.568;2023-04-24T06:21:15;7.43;;;3.63;;
51800;SDS011;37855;53.204;6.568;2023-04-24T06:23:41;7.47;;;3.63;;
51800;SDS011;37855;53.204;6.568;2023-04-24T06:26:07;6.93;;;4.00;;
51800;SDS011;37855;53.204;6.568;2023-04-24T06:28:36;7.93;;;4.20;;
51800;SDS011;37855;53.204;6.568;2023-04-24T06:31:01;8.70;;;4.57;;
51800;SDS011;37855;53.204;6.568;2023-04-24T06:33:27;8.87;;;4.90;;
51800;SDS011;37855;53.204;6.568;2023-04-24T06:35:53;7.50;;;4.95;;
51800;SDS011;37855;53.204;6.568;2023-04-24T06:38:18;9.20;;;4.33;;
51800;SDS011;37855;53.204;6.568;2023-04-24T06:40:44;8.30;;;4.70;;
51800;SDS011;37855;53.204;6.568;2023-04-24T06:43:10;7.82;;;4.10;;
51800;SDS011;37855;53.204;6.568;2023-04-24T06:45:36;8.07;;;4.50;;
51800;SDS011;37855;53.204;6.568;2023-04-24T06:48:01;9.55;;;4.75;;
51800;SDS011;37855;53.204;6.568;2023-04-24T06:50:27;8.57;;;4.73;;
51800;SDS011;37855;53.204;6.568;2023-04-24T06:52:53;10.55;;;4.65;;
51800;SDS011;37855;53.204;6.568;2023-04-24T06:55:19;11.60;;;4.67;;
51800;SDS011;37855;53.204;6.568;2023-04-24T06:57:44;10.18;;;4.22;;
51800;SDS011;37855;53.204;6.568;2023-04-24T07:00:10;7.60;;;3.57;;
51800;SDS011;37855;53.204;6.568;2023-04-24T07:02:37;9.77;;;3.28;;
51800;SDS011;37855;53.204;6.568;2023-04-24T07:05:03;7.15;;;3.35;;
51800;SDS011;37855;53.204;6.568;2023-04-24T07:07:29;6.13;;;2.87;;
51800;SDS011;37855;53.204;6.568;2023-04-24T07:09:56;6.35;;;2.80;;
51800;SDS011;37855;53.204;6.568;2023-04-24T07:12:22;8.68;;;2.72;;
51800;SDS011;37855;53.204;6.568;2023-04-24T07:14:48;6.87;;;2.63;;
51800;SDS011;37855;53.204;6.568;2023-04-24T07:17:15;4.55;;;2.42;;
51800;SDS011;37855;53.204;6.568;2023-04-24T07:19:41;7.72;;;2.67;;
51800;SDS011;37855;53.204;6.568;2023-04-24T07:22:06;6.07;;;2.50;;
51800;SDS011;37855;53.204;6.568;2023-04-24T07:24:32;6.40;;;2.42;;
51800;SDS011;37855;53.204;6.568;2023-04-24T07:26:58;6.10;;;2.00;;
51800;SDS011;37855;53.204;6.568;2023-04-24T07:29:24;8.43;;;2.42;;
51800;SDS011;37855;53.204;6.568;2023-04-24T07:31:50;4.63;;;2.20;;
51800;SDS011;37855;53.204;6.568;2023-04-24T07:34:16;6.70;;;2.70;;
51800;SDS011;37855;53.204;6.568;2023-04-24T07:36:41;4.65;;;2.60;;
51800;SDS011;37855;53.204;6.568;2023-04-24T07:39:07;5.93;;;2.77;;
51800;SDS011;37855;53.204;6.568;2023-04-24T07:41:33;6.35;;;3.00;;
51800;SDS011;37855;53.204;6.568;2023-04-24T07:43:59;5.40;;;2.90;;
51800;SDS011;37855;53.204;6.568;2023-04-24T07:46:25;6.13;;;2.70;;
51800;SDS011;37855;53.204;6.568;2023-04-24T07:48:52;7.17;;;2.63;;
51800;SDS011;37855;53.204;6.568;2023-04-24T07:51:18;7.47;;;2.63;;
51800;SDS011;37855;53.204;6.568;2023-04-24T07:53:44;7.18;;;3.13;;
51800;SDS011;37855;53.204;6.568;2023-04-24T07:56:10;8.17;;;2.67;;
51800;SDS011;37855;53.204;6.568;2023-04-24T07:58:36;9.30;;;2.90;;
51800;SDS011;37855;53.204;6.568;2023-04-24T08:01:01;12.00;;;3.50;;
51800;SDS011;37855;53.204;6.568;2023-04-24T08:03:27;9.38;;;3.90;;
51800;SDS011;37855;53.204;6.568;2023-04-24T08:05:53;9.50;;;4.60;;
51800;SDS011;37855;53.204;6.568;2023-04-24T08:08:20;11.77;;;5.53;;
51800;SDS011;37855;53.204;6.568;2023-04-24T08:10:47;11.65;;;5.65;;
51800;SDS011;37855;53.204;6.568;2023-04-24T08:13:12;13.73;;;6.37;;
51800;SDS011;37855;53.204;6.568;2023-04-24T08:15:38;16.10;;;7.07;;
51800;SDS011;37855;53.204;6.568;2023-04-24T08:18:04;16.53;;;7.60;;
51800;SDS011;37855;53.204;6.568;2023-04-24T08:20:30;18.73;;;8.32;;
51800;SDS011;37855;53.204;6.568;2023-04-24T08:22:55;16.10;;;7.73;;
51800;SDS011;37855;53.204;6.568;2023-04-24T08:25:21;20.45;;;8.85;;
51800;SDS011;37855;53.204;6.568;2023-04-24T08:27:49;16.30;;;8.70;;
51800;SDS011;37855;53.204;6.568;2023-04-24T08:30:15;19.23;;;9.63;;
51800;SDS011;37855;53.204;6.568;2023-04-24T08:32:41;19.17;;;9.20;;
51800;SDS011;37855;53.204;6.568;2023-04-24T08:35:07;19.02;;;9.35;;
51800;SDS011;37855;53.204;6.568;2023-04-24T08:37:34;18.75;;;9.48;;
51800;SDS011;37855;53.204;6.568;2023-04-24T08:40:01;17.30;;;9.13;;
51800;SDS011;37855;53.204;6.568;2023-04-24T08:42:31;19.80;;;9.63;;
51800;SDS011;37855;53.204;6.568;2023-04-24T08:45:00;18.00;;;8.93;;
51800;SDS011;37855;53.204;6.568;2023-04-24T08:47:27;18.45;;;9.20;;
51800;SDS011;37855;53.204;6.568;2023-04-24T08:49:55;14.93;;;8.02;;
51800;SDS011;37855;53.204;6.568;2023-04-24T08:52:21;16.30;;;8.97;;
51800;SDS011;37855;53.204;6.568;2023-04-24T08:54:47;18.52;;;8.85;;
51800;SDS011;37855;53.204;6.568;2023-04-24T08:57:14;18.20;;;8.68;;
51800;SDS011;37855;53.204;6.568;2023-04-24T08:59:42;16.43;;;7.33;;
51800;SDS011;37855;53.204;6.568;2023-04-24T09:02:09;14.65;;;7.90;;
51800;SDS011;37855;53.204;6.568;2023-04-24T09:04:39;18.40;;;7.70;;
51800;SDS011;37855;53.204;6.568;2023-04-24T09:07:06;15.85;;;7.93;;
51800;SDS011;37855;53.204;6.568;2023-04-24T09:09:32;15.05;;;8.90;;
51800;SDS011;37855;53.204;6.568;2023-04-24T09:11:58;17.17;;;8.90;;
51800;SDS011;37855;53.204;6.568;2023-04-24T09:14:25;16.60;;;9.55;;
51800;SDS011;37855;53.204;6.568;2023-04-24T09:16:51;19.58;;;9.57;;
51800;SDS011;37855;53.204;6.568;2023-04-24T09:19:17;17.90;;;9.60;;
51800;SDS011;37855;53.204;6.568;2023-04-24T09:21:45;19.13;;;9.70;;
51800;SDS011;37855;53.204;6.568;2023-04-24T09:24:15;18.80;;;9.30;;
51800;SDS011;37855;53.204;6.568;2023-04-24T09:26:47;18.00;;;7.70;;
51800;SDS011;37855;53.204;6.568;2023-04-24T09:29:15;13.73;;;7.22;;
51800;SDS011;37855;53.204;6.568;2023-04-24T09:31:42;14.00;;;5.87;;
51800;SDS011;37855;53.204;6.568;2023-04-24T09:34:08;13.45;;;6.18;;
51800;SDS011;37855;53.204;6.568;2023-04-24T09:36:41;13.23;;;6.50;;
51800;SDS011;37855;53.204;6.568;2023-04-24T09:39:12;13.05;;;6.55;;
51800;SDS011;37855;53.204;6.568;2023-04-24T09:41:47;15.07;;;6.37;;
51800;SDS011;37855;53.204;6.568;2023-04-24T09:44:23;13.68;;;6.28;;
51800;SDS011;37855;53.204;6.568;2023-04-24T09:46:54;10.73;;;5.97;;
51800;SDS011;37855;53.204;6.568;2023-04-24T09:49:27;15.20;;;5.88;;
51800;SDS011;37855;53.204;6.568;2023-04-24T09:52:05;13.30;;;5.45;;
51800;SDS011;37855;53.204;6.568;2023-04-24T09:54:34;17.17;;;5.10;;
51800;SDS011;37855;53.204;6.568;2023-04-24T09:57:01;12.57;;;5.05;;
51800;SDS011;37855;53.204;6.568;2023-04-24T09:59:28;15.68;;;5.20;;
51800;SDS011;37855;53.204;6.568;2023-04-24T10:01:57;14.57;;;5.07;;
51800;SDS011;37855;53.204;6.568;2023-04-24T10:04:25;12.00;;;4.50;;
51800;SDS011;37855;53.204;6.568;2023-04-24T10:06:53;8.97;;;3.70;;
51800;SDS011;37855;53.204;6.568;2023-04-24T10:09:21;11.80;;;4.10;;
51800;SDS011;37855;53.204;6.568;2023-04-24T10:11:50;11.52;;;4.00;;
51800;SDS011;37855;53.204;6.568;2023-04-24T10:14:17;9.18;;;4.10;;
51800;SDS011;37855;53.204;6.568;2023-04-24T10:16:45;11.35;;;3.65;;
51800;SDS011;37855;53.204;6.568;2023-04-24T10:19:14;7.00;;;2.93;;
51800;SDS011;37855;53.204;6.568;2023-04-24T10:21:41;6.72;;;2.97;;
51800;SDS011;37855;53.204;6.568;2023-04-24T10:24:20;10.07;;;3.40;;
51800;SDS011;37855;53.204;6.568;2023-04-24T10:26:46;8.20;;;2.78;;
51800;SDS011;37855;53.204;6.568;2023-04-24T10:29:16;8.60;;;3.63;;
51800;SDS011;37855;53.204;6.568;2023-04-24T10:31:42;9.17;;;3.40;;
51800;SDS011;37855;53.204;6.568;2023-04-24T10:34:10;9.52;;;3.10;;
51800;SDS011;37855;53.204;6.568;2023-04-24T10:36:38;12.85;;;3.33;;
51800;SDS011;37855;53.204;6.568;2023-04-24T10:39:08;11.32;;;3.50;;
51800;SDS011;37855;53.204;6.568;2023-04-24T10:41:37;8.50;;;2.90;;
51800;SDS011;37855;53.204;6.568;2023-04-24T10:44:07;9.00;;;3.20;;
51800;SDS011;37855;53.204;6.568;2023-04-24T10:46:34;9.52;;;2.95;;
51800;SDS011;37855;53.204;6.568;2023-04-24T10:49:07;12.20;;;3.45;;
51800;SDS011;37855;53.204;6.568;2023-04-24T10:51:52;7.23;;;2.67;;
51800;SDS011;37855;53.204;6.568;2023-04-24T10:59:51;10.32;;;2.75;;
51800;SDS011;37855;53.204;6.568;2023-04-24T11:02:35;9.80;;;2.70;;
51800;SDS011;37855;53.204;6.568;2023-04-24T11:07:28;8.67;;;2.90;;
51800;SDS011;37855;53.204;6.568;2023-04-24T11:10:03;7.60;;;2.53;;
51800;SDS011;37855;53.204;6.568;2023-04-24T11:12:28;6.20;;;2.28;;
51800;SDS011;37855;53.204;6.568;2023-04-24T11:17:34;10.07;;;2.30;;
51800;SDS011;37855;53.204;6.568;2023-04-24T11:20:06;7.25;;;2.22;;
51800;SDS011;37855;53.204;6.568;2023-04-24T11:22:34;6.45;;;2.33;;
51800;SDS011;37855;53.204;6.568;2023-04-24T11:27:39;6.40;;;2.05;;
51800;SDS011;37855;53.204;6.568;2023-04-24T11:30:07;7.27;;;1.97;;
51800;SDS011;37855;53.204;6.568;2023-04-24T11:37:45;8.80;;;2.00;;
51800;SDS011;37855;53.204;6.568;2023-04-24T11:40:14;8.70;;;2.13;;
51800;SDS011;37855;53.204;6.568;2023-04-24T11:42:41;8.17;;;2.30;;
51800;SDS011;37855;53.204;6.568;2023-04-24T11:45:12;6.85;;;2.10;;
51800;SDS011;37855;53.204;6.568;2023-04-24T11:47:42;10.95;;;2.25;;
51800;SDS011;37855;53.204;6.568;2023-04-24T11:50:10;7.13;;;1.80;;
51800;SDS011;37855;53.204;6.568;2023-04-24T11:52:41;8.50;;;2.10;;
51800;SDS011;37855;53.204;6.568;2023-04-24T11:57:39;9.57;;;2.05;;
51800;SDS011;37855;53.204;6.568;2023-04-24T12:00:15;8.35;;;2.42;;
51800;SDS011;37855;53.204;6.568;2023-04-24T12:02:45;10.75;;;2.03;;
51800;SDS011;37855;53.204;6.568;2023-04-24T12:05:21;8.23;;;2.05;;
51800;SDS011;37855;53.204;6.568;2023-04-24T12:07:50;7.03;;;2.00;;
51800;SDS011;37855;53.204;6.568;2023-04-24T12:12:47;7.90;;;2.13;;
51800;SDS011;37855;53.204;6.568;2023-04-24T12:15:15;8.82;;;2.38;;
51800;SDS011;37855;53.204;6.568;2023-04-24T12:17:41;8.55;;;2.00;;
51800;SDS011;37855;53.204;6.568;2023-04-24T12:20:08;8.67;;;2.13;;
51800;SDS011;37855;53.204;6.568;2023-04-24T12:22:50;10.20;;;2.10;;
51800;SDS011;37855;53.204;6.568;2023-04-24T12:25:19;9.07;;;1.92;;
51800;SDS011;37855;53.204;6.568;2023-04-24T12:27:51;6.47;;;2.03;;
51800;SDS011;37855;53.204;6.568;2023-04-24T12:30:21;6.53;;;2.35;;
51800;SDS011;37855;53.204;6.568;2023-04-24T12:32:52;7.33;;;1.63;;
51800;SDS011;37855;53.204;6.568;2023-04-24T12:35:20;5.82;;;1.67;;
51800;SDS011;37855;53.204;6.568;2023-04-24T12:37:47;3.97;;;1.60;;
51800;SDS011;37855;53.204;6.568;2023-04-24T12:40:14;5.05;;;1.60;;
51800;SDS011;37855;53.204;6.568;2023-04-24T12:42:44;3.88;;;1.45;;
51800;SDS011;37855;53.204;6.568;2023-04-24T12:45:14;6.07;;;1.40;;
51800;SDS011;37855;53.204;6.568;2023-04-24T12:47:41;3.92;;;1.20;;
51800;SDS011;37855;53.204;6.568;2023-04-24T12:50:12;6.95;;;1.50;;
51800;SDS011;37855;53.204;6.568;2023-04-24T12:52:39;5.18;;;1.60;;
51800;SDS011;37855;53.204;6.568;2023-04-24T12:55:05;4.85;;;1.70;;
51800;SDS011;37855;53.204;6.568;2023-04-24T12:57:35;6.43;;;1.33;;
51800;SDS011;37855;53.204;6.568;2023-04-24T13:00:05;5.40;;;1.48;;
51800;SDS011;37855;53.204;6.568;2023-04-24T13:02:32;4.32;;;1.52;;
51800;SDS011;37855;53.204;6.568;2023-04-24T13:04:59;6.57;;;1.40;;
51800;SDS011;37855;53.204;6.568;2023-04-24T13:07:25;4.82;;;1.30;;
51800;SDS011;37855;53.204;6.568;2023-04-24T13:09:51;5.60;;;1.37;;
51800;SDS011;37855;53.204;6.568;2023-04-24T13:12:18;4.22;;;1.70;;
51800;SDS011;37855;53.204;6.568;2023-04-24T13:14:44;7.68;;;1.65;;
51800;SDS011;37855;53.204;6.568;2023-04-24T13:17:10;4.43;;;1.30;;
51800;SDS011;37855;53.204;6.568;2023-04-24T13:19:38;8.10;;;2.40;;
51800;SDS011;37855;53.204;6.568;2023-04-24T13:22:09;10.43;;;1.60;;
51800;SDS011;37855;53.204;6.568;2023-04-24T13:24:36;7.50;;;1.65;;
51800;SDS011;37855;53.204;6.568;2023-04-24T13:27:03;10.15;;;1.90;;
51800;SDS011;37855;53.204;6.568;2023-04-24T13:29:29;7.32;;;2.03;;
51800;SDS011;37855;53.204;6.568;2023-04-24T13:31:55;7.10;;;1.90;;
51800;SDS011;37855;53.204;6.568;2023-04-24T13:34:24;4.68;;;1.60;;
51800;SDS011;37855;53.204;6.568;2023-04-24T13:36:53;4.05;;;1.50;;
51800;SDS011;37855;53.204;6.568;2023-04-24T13:39:20;5.80;;;1.52;;
51800;SDS011;37855;53.204;6.568;2023-04-24T13:41:46;8.00;;;1.88;;
51800;SDS011;37855;53.204;6.568;2023-04-24T13:44:13;2.17;;;1.10;;
51800;SDS011;37855;53.204;6.568;2023-04-24T13:46:40;3.30;;;1.10;;
51800;SDS011;37855;53.204;6.568;2023-04-24T13:49:06;3.78;;;1.23;;
51800;SDS011;37855;53.204;6.568;2023-04-24T13:51:35;4.18;;;1.20;;
51800;SDS011;37855;53.204;6.568;2023-04-24T13:54:01;5.07;;;1.30;;
51800;SDS011;37855;53.204;6.568;2023-04-24T13:56:27;6.35;;;1.10;;
51800;SDS011;37855;53.204;6.568;2023-04-24T13:58:52;4.60;;;1.47;;
51800;SDS011;37855;53.204;6.568;2023-04-24T14:01:24;4.57;;;1.50;;
51800;SDS011;37855;53.204;6.568;2023-04-24T14:03:53;4.47;;;1.40;;
51800;SDS011;37855;53.204;6.568;2023-04-24T14:06:21;5.47;;;1.48;;
51800;SDS011;37855;53.204;6.568;2023-04-24T14:08:47;9.20;;;1.80;;
51800;SDS011;37855;53.204;6.568;2023-04-24T14:11:15;7.35;;;1.83;;
51800;SDS011;37855;53.204;6.568;2023-04-24T14:13:42;6.95;;;2.50;;
51800;SDS011;37855;53.204;6.568;2023-04-24T14:16:08;9.77;;;2.10;;
51800;SDS011;37855;53.204;6.568;2023-04-24T14:18:35;8.48;;;1.98;;
51800;SDS011;37855;53.204;6.568;2023-04-24T14:21:01;8.53;;;2.40;;
51800;SDS011;37855;53.204;6.568;2023-04-24T14:23:27;7.78;;;2.10;;
51800;SDS011;37855;53.204;6.568;2023-04-24T14:25:53;7.65;;;1.83;;
51800;SDS011;37855;53.204;6.568;2023-04-24T14:28:19;8.03;;;2.10;;
51800;SDS011;37855;53.204;6.568;2023-04-24T14:30:46;10.00;;;2.13;;
51800;SDS011;37855;53.204;6.568;2023-04-24T14:33:12;6.95;;;2.20;;
51800;SDS011;37855;53.204;6.568;2023-04-24T14:35:38;10.15;;;2.20;;
51800;SDS011;37855;53.204;6.568;2023-04-24T14:38:05;10.97;;;2.20;;
51800;SDS011;37855;53.204;6.568;2023-04-24T14:40:31;9.52;;;2.65;;
51800;SDS011;37855;53.204;6.568;2023-04-24T14:42:57;8.95;;;2.05;;
51800;SDS011;37855;53.204;6.568;2023-04-24T14:45:23;7.60;;;2.30;;
51800;SDS011;37855;53.204;6.568;2023-04-24T14:47:50;7.97;;;1.80;;
51800;SDS011;37855;53.204;6.568;2023-04-24T14:50:17;11.33;;;2.93;;
51800;SDS011;37855;53.204;6.568;2023-04-24T14:52:43;4.90;;;1.63;;
51800;SDS011;37855;53.204;6.568;2023-04-24T14:55:08;8.37;;;2.40;;
51800;SDS011;37855;53.204;6.568;2023-04-24T14:57:34;7.35;;;2.47;;
51800;SDS011;37855;53.204;6.568;2023-04-24T15:00:01;9.75;;;2.55;;
51800;SDS011;37855;53.204;6.568;2023-04-24T15:02:28;11.80;;;2.13;;
51800;SDS011;37855;53.204;6.568;2023-04-24T15:04:54;8.73;;;2.28;;
51800;SDS011;37855;53.204;6.568;2023-04-24T15:07:20;9.73;;;2.47;;